Time;durP1;ratioP1;P1;durP2;ratioP2;P2;SDS_P1;SDS_P2;PMS_P1;PMS_P2;Temp;Humidity;BMP_temperature;BMP_pressure;BME280_temperature;BME280_humidity;BME280_pressure;Samples;Min_cycle;Max_cycle;Signal;HPM_P1;HPM_P2
2022/03/15 00:00:53;;;;;;;14.40;9.67;;;;;;;6.14;80.26;102773.09;5020494;28;20493;-68
2022/03/15 00:03:18;;;;;;;20.80;10.23;;;;;;;6.12;80.51;102769.69;5012315;28;20397;-68
2022/03/15 00:05:44;;;;;;;19.67;11.17;;;;;;;6.15;80.38;102775.63;5015216;28;20029;-68
2022/03/15 00:08:09;;;;;;;19.40;11.23;;;;;;;6.24;80.68;102773.34;5018523;28;20079;-68
2022/03/15 00:10:34;;;;;;;15.60;9.77;;;;;;;6.23;80.45;102759.31;5019697;28;20036;-69
2022/03/15 00:13:00;;;;;;;19.67;11.70;;;;;;;6.25;80.71;102762.69;5013894;28;20029;-69
2022/03/15 00:15:26;;;;;;;21.13;12.17;;;;;;;6.21;80.61;102762.03;5015080;28;20022;-68
2022/03/15 00:17:52;;;;;;;22.90;12.23;;;;;;;6.22;80.79;102762.91;5019153;28;20038;-69
2022/03/15 00:20:20;;;;;;;26.43;13.87;;;;;;;6.27;80.58;102766.09;5016698;28;20036;-68
2022/03/15 00:22:47;;;;;;;27.63;14.70;;;;;;;6.30;81.01;102754.50;5012892;28;20028;-68
2022/03/15 00:25:17;;;;;;;27.80;13.83;;;;;;;6.28;81.08;102751.94;5010046;28;20061;-69
2022/03/15 00:27:44;;;;;;;30.20;15.77;;;;;;;6.27;81.07;102762.59;5018462;28;20072;-68
2022/03/15 00:30:10;;;;;;;30.63;14.93;;;;;;;6.20;81.28;102759.50;5015074;28;20107;-68
2022/03/15 00:32:36;;;;;;;27.97;15.83;;;;;;;6.17;81.26;102759.69;5011717;28;20061;-68
2022/03/15 00:35:02;;;;;;;23.83;14.53;;;;;;;6.14;81.36;102765.16;5015793;28;20544;-68
2022/03/15 00:37:28;;;;;;;21.30;11.90;;;;;;;6.09;81.14;102761.97;5014650;28;20049;-68
2022/03/15 00:39:53;;;;;;;25.30;13.97;;;;;;;6.05;80.96;102755.16;5017610;28;20412;-69
2022/03/15 00:42:18;;;;;;;25.70;14.83;;;;;;;6.07;80.79;102748.00;5011638;28;20156;-69
2022/03/15 00:44:44;;;;;;;26.07;14.67;;;;;;;6.05;81.08;102750.72;5018109;28;20039;-68
2022/03/15 00:47:10;;;;;;;26.30;14.30;;;;;;;5.94;81.07;102733.88;5019690;28;20396;-68
2022/03/15 00:49:36;;;;;;;28.90;15.90;;;;;;;6.00;81.32;102741.41;5020008;28;20022;-68
2022/03/15 00:52:01;;;;;;;31.83;16.37;;;;;;;5.92;81.38;102738.41;5020128;28;20545;-68
2022/03/15 00:54:27;;;;;;;34.70;17.07;;;;;;;5.99;81.28;102743.19;5018958;28;20040;-68
2022/03/15 00:56:53;;;;;;;40.00;17.97;;;;;;;6.00;81.46;102741.41;5014431;28;20441;-68
2022/03/15 00:59:19;;;;;;;30.37;17.23;;;;;;;5.96;81.75;102739.91;5019345;28;20056;-68
2022/03/15 01:01:45;;;;;;;30.97;17.60;;;;;;;5.99;81.80;102747.63;5016678;28;20030;-68
2022/03/15 01:04:12;;;;;;;25.83;15.00;;;;;;;5.90;81.65;102747.25;5020255;28;20033;-68
2022/03/15 01:06:38;;;;;;;35.53;17.83;;;;;;;5.88;81.89;102738.56;5016169;28;20422;-68
2022/03/15 01:09:04;;;;;;;34.17;19.30;;;;;;;5.93;81.96;102735.66;5016272;28;20135;-68
2022/03/15 01:11:29;;;;;;;35.37;19.97;;;;;;;6.00;82.30;102736.13;5019997;28;20057;-68
2022/03/15 01:13:54;;;;;;;32.73;18.87;;;;;;;5.98;82.22;102732.75;5013680;28;20033;-68
2022/03/15 01:16:20;;;;;;;31.53;16.57;;;;;;;5.88;82.32;102738.56;5025074;28;20327;-68
2022/03/15 01:18:45;;;;;;;27.70;17.13;;;;;;;5.89;82.16;102742.94;5006622;28;20080;-68
2022/03/15 01:21:13;;;;;;;27.53;16.47;;;;;;;5.82;82.15;102733.66;5012921;28;20468;-68
2022/03/15 01:23:38;;;;;;;31.17;17.43;;;;;;;5.85;81.89;102740.53;5022611;28;20021;-68
2022/03/15 01:26:03;;;;;;;33.67;18.80;;;;;;;5.87;82.39;102747.41;5017049;28;20071;-68
2022/03/15 01:28:29;;;;;;;29.43;18.10;;;;;;;5.86;82.22;102734.31;5020725;28;20028;-68
2022/03/15 01:30:54;;;;;;;32.80;18.87;;;;;;;5.90;82.21;102749.06;5021411;28;20047;-68
2022/03/15 01:33:21;;;;;;;32.93;18.00;;;;;;;5.93;82.25;102733.03;5026452;28;20033;-68
2022/03/15 01:35:46;;;;;;;33.83;21.60;;;;;;;6.01;82.42;102719.38;5013485;28;20034;-68
2022/03/15 01:38:11;;;;;;;41.27;23.53;;;;;;;6.11;82.72;102726.63;5022194;28;20037;-68
2022/03/15 01:40:37;;;;;;;35.50;19.27;;;;;;;6.10;82.74;102717.03;5023685;28;20107;-68
2022/03/15 01:43:03;;;;;;;37.53;19.70;;;;;;;6.17;82.68;102718.34;5022688;28;20033;-68
2022/03/15 01:45:34;;;;;;;36.70;22.23;;;;;;;6.19;82.29;102710.31;5019770;28;20184;-68
2022/03/15 01:47:59;;;;;;;38.30;23.47;;;;;;;6.25;82.49;102709.09;5020784;28;20026;-68
2022/03/15 01:50:25;;;;;;;40.73;24.37;;;;;;;6.35;82.36;102707.56;5021725;28;20420;-68
2022/03/15 01:52:51;;;;;;;46.37;27.07;;;;;;;6.38;82.29;102704.75;5021985;28;20037;-68
2022/03/15 01:55:17;;;;;;;48.40;26.57;;;;;;;6.42;82.30;102704.44;5018455;28;20394;-68
2022/03/15 01:57:42;;;;;;;41.63;25.80;;;;;;;6.49;82.23;102705.75;5022702;28;20175;-68
2022/03/15 02:00:08;;;;;;;41.93;24.80;;;;;;;6.49;82.06;102697.81;5014415;28;21186;-68
2022/03/15 02:02:33;;;;;;;45.07;25.83;;;;;;;6.54;82.00;102700.16;5022419;28;20029;-68
2022/03/15 02:04:59;;;;;;;44.07;25.30;;;;;;;6.55;82.19;102695.72;5019621;28;20040;-68
2022/03/15 02:07:24;;;;;;;42.87;25.17;;;;;;;6.56;82.03;102697.44;5028029;28;20060;-68
2022/03/15 02:09:50;;;;;;;46.30;24.67;;;;;;;6.56;81.64;102698.28;5024087;28;20256;-68
2022/03/15 02:12:15;;;;;;;43.63;25.83;;;;;;;6.55;81.84;102693.09;5017075;28;20480;-68
2022/03/15 02:14:40;;;;;;;42.30;26.07;;;;;;;6.51;81.99;102690.66;5014404;28;20687;-68
2022/03/15 02:17:06;;;;;;;44.23;25.27;;;;;;;6.56;81.51;102693.00;5016950;28;20256;-68
2022/03/15 02:19:32;;;;;;;42.67;24.77;;;;;;;6.61;81.90;102696.19;5019332;28;20044;-68
2022/03/15 02:21:57;;;;;;;40.57;24.27;;;;;;;6.62;81.81;102691.75;5018642;28;20508;-68
2022/03/15 02:24:23;;;;;;;41.07;24.30;;;;;;;6.62;81.88;102689.09;5026030;28;20033;-68
2022/03/15 02:26:49;;;;;;;39.10;24.10;;;;;;;6.61;81.81;102688.25;5013439;28;20037;-69
2022/03/15 02:29:16;;;;;;;37.37;23.97;;;;;;;6.59;81.58;102676.09;5020068;28;20033;-68
2022/03/15 02:31:41;;;;;;;40.80;22.87;;;;;;;6.59;81.60;102679.59;5025449;28;20037;-68
2022/03/15 02:34:06;;;;;;;31.87;22.93;;;;;;;6.61;80.98;102676.84;5019906;28;20040;-68
2022/03/15 02:36:32;;;;;;;38.07;22.80;;;;;;;6.62;81.28;102682.03;5014850;28;20481;-68
2022/03/15 02:38:58;;;;;;;42.03;23.37;;;;;;;6.53;81.24;102658.88;5017783;28;20071;-68
2022/03/15 02:41:23;;;;;;;38.07;23.33;;;;;;;6.59;81.31;102662.91;5026341;28;20061;-68
2022/03/15 02:43:48;;;;;;;40.80;22.93;;;;;;;6.63;81.10;102667.88;5018468;28;20507;-68
2022/03/15 02:46:13;;;;;;;33.87;22.50;;;;;;;6.63;81.44;102673.16;5013920;28;20478;-68
2022/03/15 02:48:39;;;;;;;37.53;21.70;;;;;;;6.58;81.11;102661.22;5015590;28;20030;-68
2022/03/15 02:51:08;;;;;;;39.13;22.13;;;;;;;6.61;81.33;102663.66;5014527;28;20041;-68
2022/03/15 02:53:34;;;;;;;;;;;;;;;6.68;80.69;102660.53;5016264;28;20374;-68
2022/03/15 02:55:59;;;;;;;34.60;20.87;;;;;;;6.62;80.56;102662.72;5018393;28;19929;-68
2022/03/15 02:58:24;;;;;;;35.37;20.13;;;;;;;6.63;80.58;102659.97;5014755;28;20388;-68
2022/03/15 03:00:50;;;;;;;35.40;20.60;;;;;;;6.61;80.41;102651.31;5018173;28;20429;-68
2022/03/15 03:03:16;;;;;;;37.43;20.80;;;;;;;6.59;80.58;102652.34;5016607;28;21159;-68
2022/03/15 03:05:42;;;;;;;32.47;20.53;;;;;;;6.54;80.40;102634.19;5015505;28;20036;-68
2022/03/15 03:08:07;;;;;;;35.13;20.47;;;;;;;6.53;80.41;102635.97;5010903;28;20420;-68
2022/03/15 03:10:33;;;;;;;33.43;20.30;;;;;;;6.58;80.49;102642.75;5010126;28;20029;-68
2022/03/15 03:12:59;;;;;;;34.97;20.00;;;;;;;6.58;80.52;102637.47;5027009;28;20025;-68
2022/03/15 03:15:24;;;;;;;32.57;19.73;;;;;;;6.55;80.39;102638.50;5022275;28;20049;-68
2022/03/15 03:17:50;;;;;;;31.87;19.73;;;;;;;6.56;80.45;102632.28;5025682;28;20269;-68
2022/03/15 03:20:22;;;;;;;32.67;20.23;;;;;;;6.53;80.54;102624.56;5013587;28;20040;-68
2022/03/15 03:22:53;;;;;;;31.70;18.90;;;;;;;6.55;80.49;102627.09;5017838;28;20040;-68
2022/03/15 03:25:18;;;;;;;33.87;20.03;;;;;;;6.46;79.94;102618.84;5024219;28;20099;-68
2022/03/15 03:27:46;;;;;;;29.47;18.77;;;;;;;6.46;80.04;102618.00;5011846;28;20425;-68
2022/03/15 03:30:13;;;;;;;32.33;20.00;;;;;;;6.44;79.96;102618.09;5021385;28;20389;-68
2022/03/15 03:32:38;;;;;;;34.57;20.40;;;;;;;6.48;79.95;102613.47;5028949;28;20512;-68
2022/03/15 03:35:04;;;;;;;35.50;19.57;;;;;;;6.47;79.94;102625.81;5028185;28;20029;-68
2022/03/15 03:37:31;;;;;;;35.83;19.43;;;;;;;6.49;79.90;102623.94;5015521;28;20083;-68
2022/03/15 03:39:56;;;;;;;40.63;19.43;;;;;;;6.49;80.07;102618.66;5016799;28;20049;-68
2022/03/15 03:42:22;;;;;;;35.23;18.57;;;;;;;6.48;79.94;102619.59;5022632;28;20028;-68
2022/03/15 03:44:47;;;;;;;34.67;19.23;;;;;;;6.50;79.67;102625.63;5018722;28;20029;-68
2022/03/15 03:47:13;;;;;;;31.43;19.13;;;;;;;6.43;79.69;102624.34;5015537;28;20148;-68
2022/03/15 03:49:39;;;;;;;34.37;19.27;;;;;;;6.40;79.88;102623.69;5010957;28;20477;-68
2022/03/15 03:52:06;;;;;;;30.97;18.70;;;;;;;6.37;80.10;102619.47;5015583;28;20272;-68
2022/03/15 03:54:32;;;;;;;30.93;18.87;;;;;;;6.36;79.72;102615.13;5011727;28;20041;-68
2022/03/15 03:56:57;;;;;;;27.60;17.37;;;;;;;6.40;79.65;102621.06;5015986;28;20030;-68
2022/03/15 03:59:23;;;;;;;30.87;18.60;;;;;;;6.40;79.55;102615.78;5018395;28;20040;-68
2022/03/15 04:01:49;;;;;;;34.13;18.60;;;;;;;6.32;79.84;102616.25;5009530;28;20033;-68
2022/03/15 04:04:14;;;;;;;34.23;19.37;;;;;;;6.33;79.73;102619.72;5010363;28;20071;-68
2022/03/15 04:06:40;;;;;;;32.30;18.67;;;;;;;6.33;79.98;102623.22;5019406;28;20041;-68
2022/03/15 04:09:06;;;;;;;35.43;19.47;;;;;;;6.32;79.82;102618.03;5018687;28;20057;-68
2022/03/15 04:11:32;;;;;;;29.23;18.40;;;;;;;6.34;80.15;102621.44;5018994;28;20465;-68
2022/03/15 04:14:03;;;;;;;31.60;19.00;;;;;;;6.30;79.75;102614.66;5022569;28;20021;-68
2022/03/15 04:16:30;;;;;;;28.43;18.87;;;;;;;6.35;79.61;102623.97;5009776;28;20541;-68
2022/03/15 04:18:55;;;;;;;36.37;18.50;;;;;;;6.35;79.91;102623.97;5017948;28;20493;-68
2022/03/15 04:21:24;;;;;;;27.73;18.93;;;;;;;6.30;79.69;102630.50;5020864;28;20026;-69
2022/03/15 04:23:54;;;;;;;30.73;18.70;;;;;;;6.27;79.60;102620.13;5011500;28;20036;-68
2022/03/15 04:26:20;;;;;;;30.10;18.43;;;;;;;6.27;79.80;102626.25;5017656;28;20025;-69
2022/03/15 04:28:46;;;;;;;29.97;18.03;;;;;;;6.24;79.76;102622.97;5012817;28;20036;-68
2022/03/15 04:31:12;;;;;;;31.40;18.70;;;;;;;6.23;79.62;102619.50;5018711;28;20087;-68
2022/03/15 04:33:37;;;;;;;30.93;18.00;;;;;;;6.24;80.11;102618.53;5018888;28;20025;-68
2022/03/15 04:36:03;;;;;;;31.47;17.60;;;;;;;6.19;79.91;102616.22;5025314;28;20022;-68
2022/03/15 04:38:28;;;;;;;26.37;17.70;;;;;;;6.19;80.00;102618.00;5015816;28;20456;-68
2022/03/15 04:40:54;;;;;;;30.67;17.87;;;;;;;6.14;80.20;102615.66;5030684;28;20492;-68
2022/03/15 04:43:19;;;;;;;29.70;18.63;;;;;;;6.12;80.06;102609.63;5021231;28;20026;-68
2022/03/15 04:45:45;;;;;;;33.07;17.80;;;;;;;6.13;80.39;102605.22;5016973;28;20068;-68
2022/03/15 04:48:10;;;;;;;28.77;17.13;;;;;;;6.12;80.12;102601.72;5018534;28;21002;-69
2022/03/15 04:50:35;;;;;;;30.77;18.20;;;;;;;6.11;80.21;102602.66;5019628;28;20490;-68
2022/03/15 04:53:01;;;;;;;33.07;18.00;;;;;;;6.06;80.11;102594.19;5019323;28;20415;-68
2022/03/15 04:55:26;;;;;;;29.53;17.13;;;;;;;6.10;80.31;102605.41;5018322;28;20534;-68
2022/03/15 04:57:52;;;;;;;32.37;17.87;;;;;;;6.09;80.14;102603.72;5023105;28;20477;-68
2022/03/15 05:00:18;;;;;;;29.93;17.30;;;;;;;6.09;80.33;102603.72;5022775;28;20029;-68
2022/03/15 05:02:44;;;;;;;30.73;18.07;;;;;;;6.06;80.14;102599.47;5027170;28;20377;-68
2022/03/15 05:05:12;;;;;;;29.90;17.93;;;;;;;6.01;80.43;102593.63;5013927;28;20036;-68
2022/03/15 05:07:38;;;;;;;26.83;17.20;;;;;;;5.98;80.39;102598.25;5027217;28;20037;-68
2022/03/15 05:12:48;;;;;;;31.57;17.10;;;;;;;5.96;80.70;102592.25;5016700;28;20060;-68
2022/03/15 05:15:13;;;;;;;28.97;17.43;;;;;;;6.02;80.52;102594.47;5020216;28;20022;-68
2022/03/15 05:17:39;;;;;;;31.30;17.27;;;;;;;5.99;80.56;102579.69;5015753;28;20121;-68
2022/03/15 05:20:05;;;;;;;28.93;16.83;;;;;;;6.10;80.38;102598.34;5023573;28;20280;-68
2022/03/15 05:22:33;;;;;;;30.80;17.50;;;;;;;6.07;80.48;102589.75;5017043;28;20100;-68
2022/03/15 05:24:59;;;;;;;31.27;17.03;;;;;;;6.08;80.07;102588.84;5026967;28;20133;-68
2022/03/15 05:27:25;;;;;;;32.17;17.33;;;;;;;6.09;80.24;102594.00;5021780;28;20100;-69
2022/03/15 05:29:52;;;;;;;27.50;17.23;;;;;;;6.09;80.16;102577.34;5022189;28;20871;-69
2022/03/15 05:32:17;;;;;;;28.80;16.87;;;;;;;6.09;80.08;102591.38;5022965;28;20037;-68
2022/03/15 05:34:42;;;;;;;31.10;16.73;;;;;;;6.05;80.19;102591.66;5033196;28;20041;-68
2022/03/15 05:37:08;;;;;;;27.83;16.93;;;;;;;5.96;80.34;102577.25;5023281;28;20155;-68
2022/03/15 05:39:34;;;;;;;28.57;15.87;;;;;;;6.03;80.04;102593.53;5020547;28;20113;-68
2022/03/15 05:42:00;;;;;;;26.10;16.80;;;;;;;6.02;80.39;102589.22;5022589;28;20040;-69
2022/03/15 05:44:26;;;;;;;30.73;17.03;;;;;;;6.02;80.09;102582.13;5024303;28;20432;-69
2022/03/15 05:46:51;;;;;;;28.70;16.90;;;;;;;6.01;80.28;102582.25;5020141;28;20038;-68
2022/03/15 05:49:17;;;;;;;26.33;15.77;;;;;;;5.99;80.54;102576.22;5019424;28;20040;-69
2022/03/15 05:51:42;;;;;;;30.07;16.77;;;;;;;5.99;80.34;102578.84;5015922;28;20407;-69
2022/03/15 05:54:08;;;;;;;26.27;16.07;;;;;;;5.91;80.40;102571.44;5021726;28;20108;-68
2022/03/15 05:56:34;;;;;;;30.70;15.63;;;;;;;5.92;80.63;102567.00;5019143;28;20040;-69
2022/03/15 05:58:59;;;;;;;27.57;16.03;;;;;;;5.93;80.38;102568.72;5020598;28;20108;-69
2022/03/15 06:01:25;;;;;;;25.63;15.97;;;;;;;5.91;80.54;102560.91;5023033;28;20465;-68
2022/03/15 06:03:50;;;;;;;30.57;16.20;;;;;;;5.86;80.44;102555.03;5017772;28;20030;-68
2022/03/15 06:06:16;;;;;;;30.30;15.97;;;;;;;5.93;80.47;102564.28;5021471;28;20033;-68
2022/03/15 06:08:41;;;;;;;29.30;15.60;;;;;;;5.93;80.62;102558.16;5016686;28;20056;-69
2022/03/15 06:11:07;;;;;;;27.07;15.53;;;;;;;5.88;80.38;102559.28;5019795;28;20033;-68
2022/03/15 06:13:33;;;;;;;27.90;16.00;;;;;;;5.88;80.78;102558.44;5012476;28;20034;-68
2022/03/15 06:15:58;;;;;;;29.03;16.27;;;;;;;5.85;80.39;102556.00;5011211;28;20088;-68
2022/03/15 06:18:23;;;;;;;25.80;15.70;;;;;;;5.79;80.79;102554.59;5017322;28;20037;-68
2022/03/15 06:20:48;;;;;;;27.63;16.97;;;;;;;5.80;80.80;102548.38;5016618;28;20025;-68
2022/03/15 06:23:18;;;;;;;28.90;17.20;;;;;;;5.80;81.04;102558.94;5014399;28;20030;-68
2022/03/15 06:25:44;;;;;;;28.70;17.73;;;;;;;5.86;81.04;102560.31;5018815;28;20048;-68
2022/03/15 06:28:09;;;;;;;30.33;17.83;;;;;;;5.80;81.33;102548.38;5022536;28;20072;-68
2022/03/15 06:30:35;;;;;;;31.87;17.87;;;;;;;5.87;81.35;102554.09;5018817;28;20061;-68
2022/03/15 06:33:00;;;;;;;29.30;17.43;;;;;;;5.93;81.07;102560.78;5011198;28;20108;-68
2022/03/15 06:35:26;;;;;;;25.40;16.43;;;;;;;5.96;81.22;102561.44;5023182;28;20547;-68
2022/03/15 06:37:51;;;;;;;27.53;16.20;;;;;;;5.98;80.96;102553.44;5027227;28;20034;-68
2022/03/15 06:40:24;;;;;;;31.60;16.87;;;;;;;5.97;80.85;102544.69;5026840;28;20505;-68
2022/03/15 06:42:50;;;;;;;29.00;16.47;;;;;;;5.92;80.90;102535.38;5018335;28;20029;-68
2022/03/15 06:45:15;;;;;;;27.07;16.23;;;;;;;5.96;80.86;102548.25;5013197;28;20215;-68
2022/03/15 06:47:40;;;;;;;31.03;15.90;;;;;;;5.92;81.19;102532.75;5024064;28;20424;-68
2022/03/15 06:50:12;;;;;;;26.90;16.03;;;;;;;5.90;81.11;102528.41;5019868;28;20109;-68
2022/03/15 06:52:38;;;;;;;30.23;16.80;;;;;;;5.99;81.36;102541.94;5018390;28;20517;-68
2022/03/15 06:55:04;;;;;;;22.67;15.47;;;;;;;5.99;80.97;102534.88;5017241;28;20057;-68
2022/03/15 06:57:33;;;;;;;29.67;16.47;;;;;;;5.99;81.01;102539.31;5021692;28;20033;-68
2022/03/15 06:59:59;;;;;;;33.50;17.23;;;;;;;5.98;81.10;102527.91;5015048;28;20033;-68
2022/03/15 07:02:26;;;;;;;27.20;16.67;;;;;;;6.06;81.17;102541.44;5013520;28;20026;-67
2022/03/15 07:04:51;;;;;;;39.90;16.00;;;;;;;6.10;81.28;102536.84;5012518;28;20045;-68
2022/03/15 07:07:16;;;;;;;27.63;16.13;;;;;;;6.18;80.88;102539.81;5009427;28;20037;-68
2022/03/15 07:09:42;;;;;;;27.63;15.30;;;;;;;6.23;80.93;102535.06;5024755;28;20064;-67
2022/03/15 07:12:07;;;;;;;27.20;15.20;;;;;;;6.24;80.84;102533.28;5038129;28;20516;-67
2022/03/15 07:14:32;;;;;;;25.47;15.30;;;;;;;6.26;80.49;102534.88;5034327;28;20021;-68
2022/03/15 07:16:58;;;;;;;30.37;15.50;;;;;;;6.24;80.75;102544.69;5028971;28;20527;-68
2022/03/15 07:19:24;;;;;;;24.87;15.70;;;;;;;6.32;80.41;102542.38;5020249;28;20035;-68
2022/03/15 07:21:49;;;;;;;23.60;15.10;;;;;;;6.34;80.32;102542.25;5025766;28;20106;-67
2022/03/15 07:24:14;;;;;;;28.50;14.87;;;;;;;6.33;80.32;102530.88;5031294;28;20033;-67
2022/03/15 07:26:39;;;;;;;28.57;14.60;;;;;;;6.41;80.25;102540.94;5027673;28;20048;-68
2022/03/15 07:29:05;;;;;;;27.60;14.03;;;;;;;6.45;80.14;102527.44;5022497;28;20064;-67
2022/03/15 07:31:30;;;;;;;28.43;14.57;;;;;;;6.45;80.01;102521.31;5025833;28;20036;-67
2022/03/15 07:33:55;;;;;;;26.80;13.60;;;;;;;6.47;79.78;102528.19;5014377;28;20088;-68
2022/03/15 07:36:22;;;;;;;24.67;13.90;;;;;;;6.49;79.75;102521.00;5021788;28;20029;-68
2022/03/15 07:38:47;;;;;;;23.37;12.73;;;;;;;6.52;79.62;102522.59;5019283;28;20057;-67
2022/03/15 07:41:13;;;;;;;24.27;13.13;;;;;;;6.55;79.58;102518.91;5019200;28;20072;-67
2022/03/15 07:43:38;;;;;;;27.07;13.13;;;;;;;6.58;79.19;102510.75;5023999;28;20087;-68
2022/03/15 07:46:04;;;;;;;25.03;13.80;;;;;;;6.58;78.99;102510.75;5026781;28;20036;-67
2022/03/15 07:48:29;;;;;;;23.27;13.00;;;;;;;6.59;79.08;102513.28;5012841;28;20381;-68
2022/03/15 07:50:54;;;;;;;23.93;13.27;;;;;;;6.62;79.53;102506.97;5021976;28;20472;-68
2022/03/15 07:53:20;;;;;;;26.73;13.60;;;;;;;6.63;79.15;102506.84;5020424;28;20056;-68
2022/03/15 07:55:45;;;;;;;26.20;14.17;;;;;;;6.66;79.36;102508.47;5015870;28;20078;-68
2022/03/15 07:58:10;;;;;;;34.07;13.87;;;;;;;6.69;79.74;102502.97;5021695;28;20393;-68
2022/03/15 08:00:36;;;;;;;25.70;13.30;;;;;;;6.70;79.80;102502.03;5027155;28;20136;-68
2022/03/15 08:03:01;;;;;;;29.97;13.30;;;;;;;6.73;79.63;102504.47;5018170;28;20033;-68
2022/03/15 08:05:28;;;;;;;26.73;13.63;;;;;;;6.76;79.98;102509.53;5017617;28;20038;-67
2022/03/15 08:07:54;;;;;;;24.97;14.23;;;;;;;6.76;79.63;102505.09;5007181;28;20022;-68
2022/03/15 08:10:19;;;;;;;23.07;13.53;;;;;;;6.77;80.08;102521.78;5016977;28;20035;-68
2022/03/15 08:12:44;;;;;;;27.60;11.90;;;;;;;6.76;79.92;102517.44;5023150;28;20021;-67
2022/03/15 08:15:11;;;;;;;25.30;11.07;;;;;;;6.79;79.91;102522.50;5018824;28;20029;-66
2022/03/15 08:17:37;;;;;;;24.80;11.73;;;;;;;6.77;79.58;102498.00;5013942;28;20080;-69
2022/03/15 08:20:04;;;;;;;22.63;10.70;;;;;;;6.86;79.45;102502.66;5019336;28;20029;-70
2022/03/15 08:22:31;;;;;;;24.17;10.83;;;;;;;6.93;79.02;102505.72;5006042;28;20026;-69
2022/03/15 08:24:57;;;;;;;26.10;11.47;;;;;;;6.94;78.92;102497.72;5013489;28;20036;-70
2022/03/15 08:27:22;;;;;;;24.57;10.30;;;;;;;6.98;78.75;102504.47;5015085;28;20025;-69
2022/03/15 08:29:48;;;;;;;20.98;10.40;;;;;;;6.93;78.49;102492.50;5015781;28;20386;-69
2022/03/15 08:32:13;;;;;;;18.37;9.83;;;;;;;7.03;78.51;102502.34;5022193;28;20036;-69
2022/03/15 08:34:39;;;;;;;24.30;10.30;;;;;;;7.07;78.42;102500.34;5026181;28;20065;-70
2022/03/15 08:37:04;;;;;;;21.10;9.60;;;;;;;7.07;78.48;102487.97;5023028;28;20034;-69
2022/03/15 08:39:30;;;;;;;19.40;10.30;;;;;;;7.13;78.47;102491.97;5027873;28;20459;-69
2022/03/15 08:41:55;;;;;;;18.17;10.50;;;;;;;7.14;78.38;102483.94;5037287;28;20029;-69
2022/03/15 08:44:22;;;;;;;19.75;10.55;;;;;;;7.20;78.67;102490.56;5027224;28;20135;-70
2022/03/15 08:46:48;;;;;;;22.90;10.87;;;;;;;7.21;78.90;102486.97;5030381;28;20585;-69
2022/03/15 08:49:14;;;;;;;23.35;11.48;;;;;;;7.29;79.12;102483.81;5028381;28;20649;-69
2022/03/15 08:51:40;;;;;;;20.25;10.55;;;;;;;7.33;79.09;102485.28;5034203;28;20499;-69
2022/03/15 08:54:05;;;;;;;21.20;10.40;;;;;;;7.35;79.28;102478.09;5021194;28;20034;-69
2022/03/15 08:56:32;;;;;;;21.43;10.20;;;;;;;7.43;79.12;102483.66;5023589;28;20029;-69
2022/03/15 08:58:57;;;;;;;23.70;10.67;;;;;;;7.44;79.17;102478.28;5018125;28;20075;-69
2022/03/15 09:01:22;;;;;;;21.73;10.80;;;;;;;7.50;79.07;102479.63;5031579;28;20029;-68
2022/03/15 09:03:48;;;;;;;21.92;10.10;;;;;;;7.53;78.83;102470.66;5030472;28;20040;-68
2022/03/15 09:06:13;;;;;;;23.00;10.85;;;;;;;7.62;78.82;102475.28;5026250;28;20519;-69
2022/03/15 09:08:38;;;;;;;27.20;10.77;;;;;;;7.57;79.29;102465.03;5028038;28;20018;-69
2022/03/15 09:11:04;;;;;;;18.65;9.82;;;;;;;7.64;78.75;102470.72;5023687;28;20500;-69
2022/03/15 09:13:29;;;;;;;22.80;10.07;;;;;;;7.74;78.72;102479.66;5018667;28;20021;-69
2022/03/15 09:15:55;;;;;;;19.63;10.38;;;;;;;7.76;78.61;102470.66;5036252;28;20123;-69
2022/03/15 09:18:20;;;;;;;21.83;10.07;;;;;;;7.86;78.19;102478.78;5029667;28;20044;-68
2022/03/15 09:20:46;;;;;;;21.30;10.27;;;;;;;7.87;78.41;102464.59;5020485;28;20107;-69
2022/03/15 09:23:12;;;;;;;21.85;10.05;;;;;;;7.87;78.16;102469.88;5020249;28;20034;-69
2022/03/15 09:25:37;;;;;;;16.08;9.50;;;;;;;7.97;77.78;102470.88;5016094;28;20556;-68
2022/03/15 09:28:04;;;;;;;24.27;9.77;;;;;;;8.00;77.71;102478.59;5024106;28;20029;-69
2022/03/15 09:30:30;;;;;;;22.35;9.27;;;;;;;8.02;77.25;102474.03;5020821;28;20029;-68
2022/03/15 09:32:57;;;;;;;26.27;9.95;;;;;;;8.10;77.25;102472.63;5019102;28;20040;-68
2022/03/15 09:35:23;;;;;;;21.10;9.32;;;;;;;8.13;77.17;102467.09;5022126;28;20055;-68
2022/03/15 09:37:49;;;;;;;19.83;8.90;;;;;;;8.19;77.03;102464.84;5017490;28;20419;-68
2022/03/15 09:40:21;;;;;;;21.92;9.00;;;;;;;8.22;76.70;102471.69;5017796;28;20025;-68
2022/03/15 09:42:49;;;;;;;22.73;9.32;;;;;;;8.24;76.76;102467.97;5018264;28;20061;-68
2022/03/15 09:45:16;;;;;;;20.00;9.82;;;;;;;8.24;76.84;102462.69;5017982;28;20038;-68
2022/03/15 09:47:45;;;;;;;19.75;8.95;;;;;;;8.29;76.68;102467.63;5021442;28;20033;-69
2022/03/15 09:50:10;;;;;;;17.88;9.38;;;;;;;8.34;76.56;102460.22;5017876;28;20041;-69
2022/03/15 09:52:38;;;;;;;16.88;9.18;;;;;;;8.29;75.96;102447.28;5021079;28;20029;-68
2022/03/15 09:55:04;;;;;;;18.80;8.68;;;;;;;8.24;75.88;102436.22;5017564;28;20584;-68
2022/03/15 09:57:30;;;;;;;23.00;9.43;;;;;;;8.36;75.51;102459.13;5014498;28;20432;-68
2022/03/15 09:59:59;;;;;;;16.30;9.15;;;;;;;8.37;75.55;102454.69;5018968;28;20045;-68
2022/03/15 10:02:25;;;;;;;22.15;8.63;;;;;;;8.37;75.14;102449.38;5017912;28;20648;-68
2022/03/15 10:04:50;;;;;;;17.83;8.55;;;;;;;8.42;75.07;102457.84;5028545;28;20034;-68
2022/03/15 10:07:16;;;;;;;19.17;8.90;;;;;;;8.46;74.71;102453.16;5009926;28;20030;-68
2022/03/15 10:09:41;;;;;;;15.93;8.50;;;;;;;8.44;74.67;102440.03;5008620;28;20014;-68
2022/03/15 10:12:08;;;;;;;25.83;8.70;;;;;;;8.43;74.71;102429.56;5012977;28;20117;-68
2022/03/15 10:14:47;;;;;;;22.23;8.45;;;;;;;8.52;74.57;102442.94;5030067;28;20035;-68
2022/03/15 10:17:14;;;;;;;18.58;8.95;;;;;;;8.46;74.58;102421.38;5016111;28;20104;-68
2022/03/15 10:19:50;;;;;;;21.45;8.95;;;;;;;8.58;74.39;102441.59;5027857;28;20069;-68
2022/03/15 10:22:21;;;;;;;19.38;8.60;;;;;;;8.64;74.22;102441.97;5017949;28;20030;-68
2022/03/15 10:24:46;;;;;;;22.10;9.00;;;;;;;8.73;74.11;102445.75;5008860;28;20296;-68
2022/03/15 10:27:12;;;;;;;20.00;8.85;;;;;;;8.75;73.89;102446.47;5009587;28;20378;-69
2022/03/15 10:29:39;;;;;;;26.52;9.48;;;;;;;8.82;73.95;102438.88;5020988;28;20026;-68
2022/03/15 10:32:04;;;;;;;16.85;9.07;;;;;;;8.87;73.74;102434.03;5009216;28;20255;-68
2022/03/15 10:34:30;;;;;;;21.92;9.18;;;;;;;8.96;73.79;102430.66;5023205;28;20056;-68
2022/03/15 10:36:56;;;;;;;20.95;9.30;;;;;;;9.00;73.58;102432.97;5025697;28;20061;-68
2022/03/15 10:39:24;;;;;;;19.25;9.48;;;;;;;9.04;73.36;102422.97;5007828;28;20470;-68
2022/03/15 10:41:55;;;;;;;22.30;8.98;;;;;;;9.12;72.97;102427.66;5011964;28;20025;-68
2022/03/15 10:44:34;;;;;;;17.77;9.35;;;;;;;9.14;73.25;102415.13;5027634;28;20064;-68
2022/03/15 10:47:12;;;;;;;24.58;9.40;;;;;;;9.24;72.83;102419.56;5008671;28;20397;-68
2022/03/15 10:49:51;;;;;;;18.20;8.57;;;;;;;9.27;72.54;102403.44;5006395;28;20026;-68
2022/03/15 10:52:35;;;;;;;19.52;9.07;;;;;;;9.32;72.14;102403.06;5008598;28;20032;-68
2022/03/15 10:55:12;;;;;;;22.73;8.70;;;;;;;9.37;72.01;102400.03;5014918;28;20412;-68
2022/03/15 10:57:45;;;;;;;19.10;8.90;;;;;;;9.36;71.95;102396.53;5016947;28;20109;-68
2022/03/15 11:00:12;;;;;;;18.60;8.73;;;;;;;9.35;71.64;102397.50;5021082;28;20033;-68
2022/03/15 11:02:41;;;;;;;17.35;8.65;;;;;;;9.39;71.72;102396.28;5024748;28;20363;-68
2022/03/15 11:05:07;;;;;;;18.40;8.68;;;;;;;9.40;71.59;102387.34;5017188;28;20061;-68
2022/03/15 11:07:42;;;;;;;16.02;8.00;;;;;;;9.42;71.40;102389.88;5010966;28;20060;-68
2022/03/15 11:10:13;;;;;;;19.85;8.35;;;;;;;9.38;70.96;102381.34;5011831;28;20026;-68
2022/03/15 11:12:53;;;;;;;19.48;8.60;;;;;;;9.45;70.62;102390.47;5013622;28;20112;-68
2022/03/15 11:15:27;;;;;;;20.65;8.85;;;;;;;9.42;70.28;102380.13;5017914;28;20447;-68
2022/03/15 11:17:53;;;;;;;15.43;8.45;;;;;;;9.45;70.63;102386.97;5017773;28;20576;-68